sensor_id;sensor_type;location;lat;lon;timestamp;P1;durP1;ratioP1;P2;durP2;ratioP2
29362;SDS011;16349;53.672;10.014;2023-07-24T00:01:04;3.67;;;3.37;;
29362;SDS011;16349;53.672;10.014;2023-07-24T00:03:31;3.40;;;3.20;;
29362;SDS011;16349;53.672;10.014;2023-07-24T00:05:58;3.30;;;3.10;;
29362;SDS011;16349;53.672;10.014;2023-07-24T00:08:26;5.30;;;3.20;;
29362;SDS011;16349;53.672;10.014;2023-07-24T00:10:53;3.43;;;3.10;;
29362;SDS011;16349;53.672;10.014;2023-07-24T00:13:20;3.80;;;3.03;;
29362;SDS011;16349;53.672;10.014;2023-07-24T00:15:47;3.67;;;3.00;;
29362;SDS011;16349;53.672;10.014;2023-07-24T00:18:14;3.33;;;3.13;;
29362;SDS011;16349;53.672;10.014;2023-07-24T00:20:40;2.87;;;2.67;;
29362;SDS011;16349;53.672;10.014;2023-07-24T00:23:07;4.67;;;3.23;;
29362;SDS011;16349;53.672;10.014;2023-07-24T00:25:35;3.17;;;2.87;;
29362;SDS011;16349;53.672;10.014;2023-07-24T00:28:02;3.07;;;2.80;;
29362;SDS011;16349;53.672;10.014;2023-07-24T00:30:29;3.60;;;3.30;;
29362;SDS011;16349;53.672;10.014;2023-07-24T00:32:56;3.60;;;2.80;;
29362;SDS011;16349;53.672;10.014;2023-07-24T00:35:23;3.27;;;3.07;;
29362;SDS011;16349;53.672;10.014;2023-07-24T00:37:50;4.10;;;3.70;;
29362;SDS011;16349;53.672;10.014;2023-07-24T00:40:17;4.17;;;3.17;;
29362;SDS011;16349;53.672;10.014;2023-07-24T00:42:47;3.50;;;3.20;;
29362;SDS011;16349;53.672;10.014;2023-07-24T00:45:14;3.13;;;2.93;;
29362;SDS011;16349;53.672;10.014;2023-07-24T00:47:42;3.37;;;3.07;;
29362;SDS011;16349;53.672;10.014;2023-07-24T00:50:10;3.50;;;3.30;;
29362;SDS011;16349;53.672;10.014;2023-07-24T00:52:38;4.90;;;3.87;;
29362;SDS011;16349;53.672;10.014;2023-07-24T00:55:06;3.30;;;3.00;;
29362;SDS011;16349;53.672;10.014;2023-07-24T00:57:33;3.30;;;3.10;;
29362;SDS011;16349;53.672;10.014;2023-07-24T01:00:02;3.80;;;3.50;;
29362;SDS011;16349;53.672;10.014;2023-07-24T01:02:29;4.87;;;3.37;;
29362;SDS011;16349;53.672;10.014;2023-07-24T01:04:56;3.53;;;3.23;;
29362;SDS011;16349;53.672;10.014;2023-07-24T01:07:23;3.20;;;2.90;;
29362;SDS011;16349;53.672;10.014;2023-07-24T01:09:50;4.07;;;3.73;;
29362;SDS011;16349;53.672;10.014;2023-07-24T01:12:19;3.93;;;3.63;;
29362;SDS011;16349;53.672;10.014;2023-07-24T01:14:49;4.13;;;3.50;;
29362;SDS011;16349;53.672;10.014;2023-07-24T01:17:23;4.47;;;3.60;;
29362;SDS011;16349;53.672;10.014;2023-07-24T01:19:52;3.40;;;3.10;;
29362;SDS011;16349;53.672;10.014;2023-07-24T01:22:24;4.43;;;3.30;;
29362;SDS011;16349;53.672;10.014;2023-07-24T01:25:04;3.90;;;3.60;;
29362;SDS011;16349;53.672;10.014;2023-07-24T01:27:37;5.60;;;4.07;;
29362;SDS011;16349;53.672;10.014;2023-07-24T01:30:08;4.10;;;3.80;;
29362;SDS011;16349;53.672;10.014;2023-07-24T01:32:35;4.07;;;3.77;;
29362;SDS011;16349;53.672;10.014;2023-07-24T01:35:03;4.37;;;3.97;;
29362;SDS011;16349;53.672;10.014;2023-07-24T01:37:30;5.10;;;4.70;;
29362;SDS011;16349;53.672;10.014;2023-07-24T01:39:58;4.63;;;4.23;;
29362;SDS011;16349;53.672;10.014;2023-07-24T01:42:25;5.80;;;4.40;;
29362;SDS011;16349;53.672;10.014;2023-07-24T01:44:55;4.53;;;4.13;;
29362;SDS011;16349;53.672;10.014;2023-07-24T01:47:22;5.40;;;4.00;;
29362;SDS011;16349;53.672;10.014;2023-07-24T01:49:49;4.13;;;3.63;;
29362;SDS011;16349;53.672;10.014;2023-07-24T01:52:15;4.87;;;4.03;;
29362;SDS011;16349;53.672;10.014;2023-07-24T01:54:42;4.83;;;4.23;;
29362;SDS011;16349;53.672;10.014;2023-07-24T01:57:09;3.83;;;3.53;;
29362;SDS011;16349;53.672;10.014;2023-07-24T01:59:36;5.80;;;3.60;;
29362;SDS011;16349;53.672;10.014;2023-07-24T02:02:05;3.77;;;3.47;;
29362;SDS011;16349;53.672;10.014;2023-07-24T02:04:32;3.80;;;3.50;;
29362;SDS011;16349;53.672;10.014;2023-07-24T02:06:58;3.90;;;3.50;;
29362;SDS011;16349;53.672;10.014;2023-07-24T02:09:25;4.97;;;3.83;;
29362;SDS011;16349;53.672;10.014;2023-07-24T02:11:52;4.23;;;3.93;;
29362;SDS011;16349;53.672;10.014;2023-07-24T02:14:19;4.03;;;3.60;;
29362;SDS011;16349;53.672;10.014;2023-07-24T02:16:46;4.00;;;3.70;;
29362;SDS011;16349;53.672;10.014;2023-07-24T02:19:15;4.07;;;3.77;;
29362;SDS011;16349;53.672;10.014;2023-07-24T02:21:41;3.83;;;3.53;;
29362;SDS011;16349;53.672;10.014;2023-07-24T02:24:08;4.37;;;4.00;;
29362;SDS011;16349;53.672;10.014;2023-07-24T02:26:35;4.70;;;4.30;;
29362;SDS011;16349;53.672;10.014;2023-07-24T02:29:02;5.37;;;3.70;;
29362;SDS011;16349;53.672;10.014;2023-07-24T02:31:29;3.60;;;3.30;;
29362;SDS011;16349;53.672;10.014;2023-07-24T02:33:55;4.37;;;3.97;;
29362;SDS011;16349;53.672;10.014;2023-07-24T02:36:23;4.40;;;4.10;;
29362;SDS011;16349;53.672;10.014;2023-07-24T02:38:50;6.27;;;4.00;;
29362;SDS011;16349;53.672;10.014;2023-07-24T02:41:17;7.63;;;4.23;;
29362;SDS011;16349;53.672;10.014;2023-07-24T02:43:44;5.03;;;4.63;;
29362;SDS011;16349;53.672;10.014;2023-07-24T02:46:11;5.23;;;4.73;;
29362;SDS011;16349;53.672;10.014;2023-07-24T02:48:38;6.13;;;5.27;;
29362;SDS011;16349;53.672;10.014;2023-07-24T02:51:05;5.67;;;5.27;;
29362;SDS011;16349;53.672;10.014;2023-07-24T02:53:33;6.13;;;5.60;;
29362;SDS011;16349;53.672;10.014;2023-07-24T02:56:00;6.63;;;6.00;;
29362;SDS011;16349;53.672;10.014;2023-07-24T02:58:28;6.63;;;6.00;;
29362;SDS011;16349;53.672;10.014;2023-07-24T03:01:01;6.40;;;5.80;;
29362;SDS011;16349;53.672;10.014;2023-07-24T03:03:29;6.17;;;5.67;;
29362;SDS011;16349;53.672;10.014;2023-07-24T03:05:56;6.60;;;5.90;;
29362;SDS011;16349;53.672;10.014;2023-07-24T03:08:23;6.57;;;5.83;;
29362;SDS011;16349;53.672;10.014;2023-07-24T03:10:51;6.37;;;5.87;;
29362;SDS011;16349;53.672;10.014;2023-07-24T03:13:18;5.97;;;5.40;;
29362;SDS011;16349;53.672;10.014;2023-07-24T03:15:50;6.90;;;6.20;;
29362;SDS011;16349;53.672;10.014;2023-07-24T03:18:18;7.07;;;5.97;;
29362;SDS011;16349;53.672;10.014;2023-07-24T03:20:45;6.90;;;5.97;;
29362;SDS011;16349;53.672;10.014;2023-07-24T03:23:12;6.00;;;5.50;;
29362;SDS011;16349;53.672;10.014;2023-07-24T03:25:39;6.63;;;5.90;;
29362;SDS011;16349;53.672;10.014;2023-07-24T03:28:07;7.50;;;6.43;;
29362;SDS011;16349;53.672;10.014;2023-07-24T03:30:35;6.93;;;6.23;;
29362;SDS011;16349;53.672;10.014;2023-07-24T03:33:02;7.20;;;6.57;;
29362;SDS011;16349;53.672;10.014;2023-07-24T03:35:31;6.10;;;5.47;;
29362;SDS011;16349;53.672;10.014;2023-07-24T03:37:58;6.07;;;5.57;;
29362;SDS011;16349;53.672;10.014;2023-07-24T03:40:25;7.10;;;5.73;;
29362;SDS011;16349;53.672;10.014;2023-07-24T03:42:52;5.87;;;5.47;;
29362;SDS011;16349;53.672;10.014;2023-07-24T03:45:20;5.60;;;5.10;;
29362;SDS011;16349;53.672;10.014;2023-07-24T03:47:47;6.53;;;4.93;;
29362;SDS011;16349;53.672;10.014;2023-07-24T03:50:14;6.77;;;5.20;;
29362;SDS011;16349;53.672;10.014;2023-07-24T03:52:41;5.63;;;5.03;;
29362;SDS011;16349;53.672;10.014;2023-07-24T03:55:08;5.40;;;4.90;;
29362;SDS011;16349;53.672;10.014;2023-07-24T03:57:35;5.20;;;4.70;;
29362;SDS011;16349;53.672;10.014;2023-07-24T04:00:03;6.17;;;5.37;;
29362;SDS011;16349;53.672;10.014;2023-07-24T04:02:38;6.03;;;5.07;;
29362;SDS011;16349;53.672;10.014;2023-07-24T04:05:05;6.10;;;5.50;;
29362;SDS011;16349;53.672;10.014;2023-07-24T04:07:33;9.13;;;4.97;;
29362;SDS011;16349;53.672;10.014;2023-07-24T04:09:59;6.77;;;5.20;;
29362;SDS011;16349;53.672;10.014;2023-07-24T04:12:28;5.37;;;4.87;;
29362;SDS011;16349;53.672;10.014;2023-07-24T04:14:55;5.77;;;4.90;;
29362;SDS011;16349;53.672;10.014;2023-07-24T04:17:22;5.07;;;4.67;;
29362;SDS011;16349;53.672;10.014;2023-07-24T04:19:50;5.63;;;4.50;;
29362;SDS011;16349;53.672;10.014;2023-07-24T04:22:17;5.67;;;5.17;;
29362;SDS011;16349;53.672;10.014;2023-07-24T04:24:44;5.13;;;4.63;;
29362;SDS011;16349;53.672;10.014;2023-07-24T04:27:10;5.10;;;4.27;;
29362;SDS011;16349;53.672;10.014;2023-07-24T04:29:37;5.57;;;5.00;;
29362;SDS011;16349;53.672;10.014;2023-07-24T04:32:04;5.23;;;4.73;;
29362;SDS011;16349;53.672;10.014;2023-07-24T04:34:31;5.07;;;4.50;;
29362;SDS011;16349;53.672;10.014;2023-07-24T04:37:00;5.33;;;4.70;;
29362;SDS011;16349;53.672;10.014;2023-07-24T04:39:27;4.87;;;4.47;;
29362;SDS011;16349;53.672;10.014;2023-07-24T04:41:54;5.03;;;4.37;;
29362;SDS011;16349;53.672;10.014;2023-07-24T04:44:20;6.90;;;5.03;;
29362;SDS011;16349;53.672;10.014;2023-07-24T04:46:47;4.87;;;4.47;;
29362;SDS011;16349;53.672;10.014;2023-07-24T04:49:15;4.90;;;4.60;;
29362;SDS011;16349;53.672;10.014;2023-07-24T04:51:42;5.37;;;4.87;;
29362;SDS011;16349;53.672;10.014;2023-07-24T04:54:10;5.17;;;4.77;;
29362;SDS011;16349;53.672;10.014;2023-07-24T04:56:37;5.30;;;4.90;;
29362;SDS011;16349;53.672;10.014;2023-07-24T04:59:04;6.20;;;4.70;;
29362;SDS011;16349;53.672;10.014;2023-07-24T05:01:30;6.07;;;4.93;;
29362;SDS011;16349;53.672;10.014;2023-07-24T05:03:57;4.67;;;4.27;;
29362;SDS011;16349;53.672;10.014;2023-07-24T05:06:24;5.17;;;4.67;;
29362;SDS011;16349;53.672;10.014;2023-07-24T05:08:52;5.93;;;5.33;;
29362;SDS011;16349;53.672;10.014;2023-07-24T05:11:20;4.90;;;4.47;;
29362;SDS011;16349;53.672;10.014;2023-07-24T05:13:47;5.50;;;4.93;;
29362;SDS011;16349;53.672;10.014;2023-07-24T05:16:14;8.87;;;4.83;;
29362;SDS011;16349;53.672;10.014;2023-07-24T05:18:41;5.40;;;4.80;;
29362;SDS011;16349;53.672;10.014;2023-07-24T05:21:07;6.47;;;4.57;;
29362;SDS011;16349;53.672;10.014;2023-07-24T05:23:34;5.53;;;5.03;;
29362;SDS011;16349;53.672;10.014;2023-07-24T05:26:02;5.80;;;5.20;;
29362;SDS011;16349;53.672;10.014;2023-07-24T05:28:31;5.27;;;4.77;;
29362;SDS011;16349;53.672;10.014;2023-07-24T05:30:59;5.73;;;5.30;;
29362;SDS011;16349;53.672;10.014;2023-07-24T05:33:27;4.97;;;4.57;;
29362;SDS011;16349;53.672;10.014;2023-07-24T05:35:57;5.00;;;4.50;;
29362;SDS011;16349;53.672;10.014;2023-07-24T05:38:24;5.97;;;5.10;;
29362;SDS011;16349;53.672;10.014;2023-07-24T05:40:54;5.37;;;4.87;;
29362;SDS011;16349;53.672;10.014;2023-07-24T05:43:21;5.57;;;5.07;;
29362;SDS011;16349;53.672;10.014;2023-07-24T05:45:50;6.77;;;4.80;;
29362;SDS011;16349;53.672;10.014;2023-07-24T05:48:16;5.90;;;5.40;;
29362;SDS011;16349;53.672;10.014;2023-07-24T05:50:43;5.90;;;5.40;;
29362;SDS011;16349;53.672;10.014;2023-07-24T05:53:10;5.20;;;4.77;;
29362;SDS011;16349;53.672;10.014;2023-07-24T05:55:37;5.70;;;5.20;;
29362;SDS011;16349;53.672;10.014;2023-07-24T05:58:04;8.33;;;5.70;;
29362;SDS011;16349;53.672;10.014;2023-07-24T06:00:31;5.60;;;5.07;;
29362;SDS011;16349;53.672;10.014;2023-07-24T06:02:59;6.00;;;5.40;;
29362;SDS011;16349;53.672;10.014;2023-07-24T06:05:26;5.90;;;5.07;;
29362;SDS011;16349;53.672;10.014;2023-07-24T06:07:53;5.97;;;5.10;;
29362;SDS011;16349;53.672;10.014;2023-07-24T06:10:20;5.83;;;5.33;;
29362;SDS011;16349;53.672;10.014;2023-07-24T06:12:47;5.03;;;4.63;;
29362;SDS011;16349;53.672;10.014;2023-07-24T06:15:14;5.23;;;4.83;;
29362;SDS011;16349;53.672;10.014;2023-07-24T06:17:40;6.83;;;5.03;;
29362;SDS011;16349;53.672;10.014;2023-07-24T06:20:09;4.60;;;4.30;;
29362;SDS011;16349;53.672;10.014;2023-07-24T06:22:36;5.33;;;4.83;;
29362;SDS011;16349;53.672;10.014;2023-07-24T06:25:03;5.90;;;5.13;;
29362;SDS011;16349;53.672;10.014;2023-07-24T06:27:30;6.00;;;5.50;;
29362;SDS011;16349;53.672;10.014;2023-07-24T06:29:57;7.07;;;5.70;;
29362;SDS011;16349;53.672;10.014;2023-07-24T06:32:24;5.80;;;5.30;;
29362;SDS011;16349;53.672;10.014;2023-07-24T06:34:51;5.70;;;5.17;;
29362;SDS011;16349;53.672;10.014;2023-07-24T06:37:19;6.83;;;5.73;;
29362;SDS011;16349;53.672;10.014;2023-07-24T06:39:46;6.63;;;5.57;;
29362;SDS011;16349;53.672;10.014;2023-07-24T06:42:13;6.03;;;5.53;;
29362;SDS011;16349;53.672;10.014;2023-07-24T06:44:39;5.80;;;5.27;;
29362;SDS011;16349;53.672;10.014;2023-07-24T06:47:06;6.57;;;6.00;;
29362;SDS011;16349;53.672;10.014;2023-07-24T06:49:33;6.37;;;5.73;;
29362;SDS011;16349;53.672;10.014;2023-07-24T06:52:00;7.50;;;5.47;;
29362;SDS011;16349;53.672;10.014;2023-07-24T06:54:28;6.73;;;6.07;;
29362;SDS011;16349;53.672;10.014;2023-07-24T06:56:55;6.13;;;5.63;;
29362;SDS011;16349;53.672;10.014;2023-07-24T06:59:22;6.17;;;5.67;;
29362;SDS011;16349;53.672;10.014;2023-07-24T07:01:49;6.00;;;5.50;;
29362;SDS011;16349;53.672;10.014;2023-07-24T07:04:16;5.77;;;5.20;;
29362;SDS011;16349;53.672;10.014;2023-07-24T07:06:43;5.80;;;5.30;;
29362;SDS011;16349;53.672;10.014;2023-07-24T07:09:10;6.20;;;5.70;;
29362;SDS011;16349;53.672;10.014;2023-07-24T07:11:38;6.40;;;5.80;;
29362;SDS011;16349;53.672;10.014;2023-07-24T07:14:05;6.83;;;5.93;;
29362;SDS011;16349;53.672;10.014;2023-07-24T07:16:33;6.10;;;5.60;;
29362;SDS011;16349;53.672;10.014;2023-07-24T07:19:00;5.70;;;5.28;;
29362;SDS011;16349;53.672;10.014;2023-07-24T07:21:27;6.33;;;5.83;;
29362;SDS011;16349;53.672;10.014;2023-07-24T07:23:54;6.30;;;5.72;;
29362;SDS011;16349;53.672;10.014;2023-07-24T07:26:21;6.13;;;5.53;;
29362;SDS011;16349;53.672;10.014;2023-07-24T07:28:49;6.07;;;5.53;;
29362;SDS011;16349;53.672;10.014;2023-07-24T07:31:16;6.15;;;5.55;;
29362;SDS011;16349;53.672;10.014;2023-07-24T07:33:43;6.13;;;5.40;;
29362;SDS011;16349;53.672;10.014;2023-07-24T07:36:10;5.53;;;5.03;;
29362;SDS011;16349;53.672;10.014;2023-07-24T07:38:37;6.00;;;5.50;;
29362;SDS011;16349;53.672;10.014;2023-07-24T07:41:04;6.37;;;5.77;;
29362;SDS011;16349;53.672;10.014;2023-07-24T07:43:32;6.13;;;5.63;;
29362;SDS011;16349;53.672;10.014;2023-07-24T07:46:01;6.13;;;5.63;;
29362;SDS011;16349;53.672;10.014;2023-07-24T07:48:28;5.60;;;5.20;;
29362;SDS011;16349;53.672;10.014;2023-07-24T07:50:56;5.40;;;5.00;;
29362;SDS011;16349;53.672;10.014;2023-07-24T07:53:23;6.57;;;6.07;;
29362;SDS011;16349;53.672;10.014;2023-07-24T07:55:54;7.70;;;6.00;;
29362;SDS011;16349;53.672;10.014;2023-07-24T07:58:23;5.88;;;5.30;;
29362;SDS011;16349;53.672;10.014;2023-07-24T08:00:50;5.72;;;5.32;;
29362;SDS011;16349;53.672;10.014;2023-07-24T08:03:18;5.70;;;5.30;;
29362;SDS011;16349;53.672;10.014;2023-07-24T08:05:46;5.80;;;5.40;;
29362;SDS011;16349;53.672;10.014;2023-07-24T08:08:13;6.70;;;5.90;;
29362;SDS011;16349;53.672;10.014;2023-07-24T08:10:40;5.43;;;5.03;;
29362;SDS011;16349;53.672;10.014;2023-07-24T08:13:07;5.50;;;5.00;;
29362;SDS011;16349;53.672;10.014;2023-07-24T08:15:34;5.80;;;5.30;;
29362;SDS011;16349;53.672;10.014;2023-07-24T08:18:02;6.28;;;5.47;;
29362;SDS011;16349;53.672;10.014;2023-07-24T08:20:30;5.95;;;5.35;;
29362;SDS011;16349;53.672;10.014;2023-07-24T08:22:58;5.78;;;5.30;;
29362;SDS011;16349;53.672;10.014;2023-07-24T08:25:24;5.40;;;4.90;;
29362;SDS011;16349;53.672;10.014;2023-07-24T08:27:51;5.30;;;4.90;;
29362;SDS011;16349;53.672;10.014;2023-07-24T08:30:18;5.82;;;5.32;;
29362;SDS011;16349;53.672;10.014;2023-07-24T08:32:45;5.57;;;5.07;;
29362;SDS011;16349;53.672;10.014;2023-07-24T08:35:14;6.13;;;5.60;;
29362;SDS011;16349;53.672;10.014;2023-07-24T08:37:43;6.15;;;5.43;;
29362;SDS011;16349;53.672;10.014;2023-07-24T08:40:10;6.07;;;5.47;;
29362;SDS011;16349;53.672;10.014;2023-07-24T08:42:38;5.82;;;5.32;;
29362;SDS011;16349;53.672;10.014;2023-07-24T08:45:08;5.00;;;4.60;;
29362;SDS011;16349;53.672;10.014;2023-07-24T08:47:38;6.03;;;5.53;;
29362;SDS011;16349;53.672;10.014;2023-07-24T08:50:08;6.47;;;5.85;;
29362;SDS011;16349;53.672;10.014;2023-07-24T08:52:37;6.03;;;5.05;;
29362;SDS011;16349;53.672;10.014;2023-07-24T08:55:06;5.97;;;5.47;;
29362;SDS011;16349;53.672;10.014;2023-07-24T08:57:34;5.43;;;5.03;;
29362;SDS011;16349;53.672;10.014;2023-07-24T09:00:01;6.22;;;5.32;;
29362;SDS011;16349;53.672;10.014;2023-07-24T09:02:30;6.00;;;5.53;;
29362;SDS011;16349;53.672;10.014;2023-07-24T09:04:58;6.25;;;5.65;;
29362;SDS011;16349;53.672;10.014;2023-07-24T09:07:25;6.40;;;5.80;;
29362;SDS011;16349;53.672;10.014;2023-07-24T09:09:52;5.72;;;5.20;;
29362;SDS011;16349;53.672;10.014;2023-07-24T09:12:21;5.85;;;5.45;;
29362;SDS011;16349;53.672;10.014;2023-07-24T09:14:48;6.45;;;5.68;;
29362;SDS011;16349;53.672;10.014;2023-07-24T09:17:26;5.18;;;4.78;;
29362;SDS011;16349;53.672;10.014;2023-07-24T09:19:55;5.40;;;5.00;;
29362;SDS011;16349;53.672;10.014;2023-07-24T09:22:23;5.75;;;5.03;;
29362;SDS011;16349;53.672;10.014;2023-07-24T09:24:52;7.63;;;5.32;;
29362;SDS011;16349;53.672;10.014;2023-07-24T09:27:24;5.32;;;4.50;;
29362;SDS011;16349;53.672;10.014;2023-07-24T09:29:52;5.40;;;5.00;;
29362;SDS011;16349;53.672;10.014;2023-07-24T09:32:19;6.03;;;4.95;;
29362;SDS011;16349;53.672;10.014;2023-07-24T09:34:47;5.63;;;5.15;;
29362;SDS011;16349;53.672;10.014;2023-07-24T09:37:23;5.68;;;4.93;;
29362;SDS011;16349;53.672;10.014;2023-07-24T09:39:51;5.03;;;4.63;;
29362;SDS011;16349;53.672;10.014;2023-07-24T09:42:18;4.78;;;4.38;;
29362;SDS011;16349;53.672;10.014;2023-07-24T09:44:55;4.95;;;4.53;;
29362;SDS011;16349;53.672;10.014;2023-07-24T09:47:22;6.28;;;4.72;;
29362;SDS011;16349;53.672;10.014;2023-07-24T09:49:50;5.25;;;4.78;;
29362;SDS011;16349;53.672;10.014;2023-07-24T09:52:18;5.03;;;4.60;;
29362;SDS011;16349;53.672;10.014;2023-07-24T09:54:49;5.35;;;4.85;;
29362;SDS011;16349;53.672;10.014;2023-07-24T09:57:22;5.43;;;4.60;;
29362;SDS011;16349;53.672;10.014;2023-07-24T09:59:51;5.15;;;4.65;;
29362;SDS011;16349;53.672;10.014;2023-07-24T10:02:19;5.13;;;4.72;;
29362;SDS011;16349;53.672;10.014;2023-07-24T10:04:47;4.68;;;4.28;;
29362;SDS011;16349;53.672;10.014;2023-07-24T10:07:16;5.50;;;5.00;;
29362;SDS011;16349;53.672;10.014;2023-07-24T10:09:47;4.65;;;4.25;;
29362;SDS011;16349;53.672;10.014;2023-07-24T10:12:15;5.10;;;4.60;;
29362;SDS011;16349;53.672;10.014;2023-07-24T10:14:42;4.70;;;4.30;;
29362;SDS011;16349;53.672;10.014;2023-07-24T10:17:11;6.82;;;4.03;;
29362;SDS011;16349;53.672;10.014;2023-07-24T10:19:39;4.97;;;4.57;;
29362;SDS011;16349;53.672;10.014;2023-07-24T10:22:08;4.68;;;4.25;;
29362;SDS011;16349;53.672;10.014;2023-07-24T10:24:36;4.68;;;4.18;;
29362;SDS011;16349;53.672;10.014;2023-07-24T10:27:04;6.93;;;4.45;;
29362;SDS011;16349;53.672;10.014;2023-07-24T10:29:36;4.97;;;4.57;;
29362;SDS011;16349;53.672;10.014;2023-07-24T10:32:04;4.28;;;3.97;;
29362;SDS011;16349;53.672;10.014;2023-07-24T10:34:43;4.18;;;3.88;;
29362;SDS011;16349;53.672;10.014;2023-07-24T10:37:10;5.30;;;4.80;;
29362;SDS011;16349;53.672;10.014;2023-07-24T10:39:37;4.93;;;4.43;;
29362;SDS011;16349;53.672;10.014;2023-07-24T10:42:06;5.15;;;4.75;;
29362;SDS011;16349;53.672;10.014;2023-07-24T10:44:34;4.05;;;3.60;;
29362;SDS011;16349;53.672;10.014;2023-07-24T10:47:01;4.38;;;4.07;;
29362;SDS011;16349;53.672;10.014;2023-07-24T10:49:28;4.90;;;4.40;;
29362;SDS011;16349;53.672;10.014;2023-07-24T10:51:57;5.07;;;4.32;;
29362;SDS011;16349;53.672;10.014;2023-07-24T10:54:25;4.30;;;4.00;;
29362;SDS011;16349;53.672;10.014;2023-07-24T10:56:57;4.50;;;4.20;;
29362;SDS011;16349;53.672;10.014;2023-07-24T10:59:34;5.13;;;4.72;;
29362;SDS011;16349;53.672;10.014;2023-07-24T11:02:02;5.15;;;4.75;;
29362;SDS011;16349;53.672;10.014;2023-07-24T11:04:30;4.55;;;4.10;;
29362;SDS011;16349;53.672;10.014;2023-07-24T11:06:59;4.70;;;4.30;;
29362;SDS011;16349;53.672;10.014;2023-07-24T11:09:34;5.15;;;4.68;;
29362;SDS011;16349;53.672;10.014;2023-07-24T11:12:08;5.20;;;4.47;;
29362;SDS011;16349;53.672;10.014;2023-07-24T11:14:45;4.82;;;4.38;;
29362;SDS011;16349;53.672;10.014;2023-07-24T11:17:15;5.22;;;4.35;;
29362;SDS011;16349;53.672;10.014;2023-07-24T11:19:42;4.65;;;4.30;;
29362;SDS011;16349;53.672;10.014;2023-07-24T11:22:11;5.35;;;4.53;;
29362;SDS011;16349;53.672;10.014;2023-07-24T11:24:45;4.57;;;4.18;;
29362;SDS011;16349;53.672;10.014;2023-07-24T11:27:12;4.20;;;3.90;;
29362;SDS011;16349;53.672;10.014;2023-07-24T11:29:41;4.47;;;4.10;;
29362;SDS011;16349;53.672;10.014;2023-07-24T11:32:13;4.22;;;3.92;;
29362;SDS011;16349;53.672;10.014;2023-07-24T11:34:43;4.07;;;3.78;;
29362;SDS011;16349;53.672;10.014;2023-07-24T11:37:12;4.30;;;4.00;;
29362;SDS011;16349;53.672;10.014;2023-07-24T11:39:39;3.83;;;3.63;;
29362;SDS011;16349;53.672;10.014;2023-07-24T11:42:06;3.97;;;3.67;;
29362;SDS011;16349;53.672;10.014;2023-07-24T11:44:33;4.32;;;3.75;;
29362;SDS011;16349;53.672;10.014;2023-07-24T11:47:00;4.10;;;3.70;;
29362;SDS011;16349;53.672;10.014;2023-07-24T11:49:28;5.18;;;4.03;;
29362;SDS011;16349;53.672;10.014;2023-07-24T11:51:59;5.47;;;4.05;;
29362;SDS011;16349;53.672;10.014;2023-07-24T11:54:28;5.20;;;3.85;;
29362;SDS011;16349;53.672;10.014;2023-07-24T11:56:55;4.35;;;4.00;;
29362;SDS011;16349;53.672;10.014;2023-07-24T11:59:22;3.47;;;3.28;;
29362;SDS011;16349;53.672;10.014;2023-07-24T12:01:50;3.50;;;3.20;;
29362;SDS011;16349;53.672;10.014;2023-07-24T12:04:18;4.18;;;3.78;;
29362;SDS011;16349;53.672;10.014;2023-07-24T12:06:45;4.00;;;3.70;;
29362;SDS011;16349;53.672;10.014;2023-07-24T12:09:13;3.63;;;3.33;;
29362;SDS011;16349;53.672;10.014;2023-07-24T12:11:41;3.63;;;3.33;;
29362;SDS011;16349;53.672;10.014;2023-07-24T12:14:08;4.30;;;4.00;;
29362;SDS011;16349;53.672;10.014;2023-07-24T12:16:35;4.13;;;3.83;;
29362;SDS011;16349;53.672;10.014;2023-07-24T12:19:02;4.25;;;3.78;;
29362;SDS011;16349;53.672;10.014;2023-07-24T12:21:29;3.88;;;3.55;;
29362;SDS011;16349;53.672;10.014;2023-07-24T12:23:56;4.22;;;3.83;;
29362;SDS011;16349;53.672;10.014;2023-07-24T12:26:23;4.00;;;3.70;;
29362;SDS011;16349;53.672;10.014;2023-07-24T12:28:54;4.93;;;3.92;;
29362;SDS011;16349;53.672;10.014;2023-07-24T12:31:21;3.90;;;3.38;;
29362;SDS011;16349;53.672;10.014;2023-07-24T12:33:47;5.43;;;4.18;;
29362;SDS011;16349;53.672;10.014;2023-07-24T12:36:14;3.80;;;3.47;;
29362;SDS011;16349;53.672;10.014;2023-07-24T12:38:41;4.57;;;4.18;;
29362;SDS011;16349;53.672;10.014;2023-07-24T12:41:08;3.47;;;3.28;;
29362;SDS011;16349;53.672;10.014;2023-07-24T12:43:35;3.45;;;3.15;;
29362;SDS011;16349;53.672;10.014;2023-07-24T12:46:03;3.75;;;3.55;;
29362;SDS011;16349;53.672;10.014;2023-07-24T12:48:30;4.07;;;3.50;;
29362;SDS011;16349;53.672;10.014;2023-07-24T12:50:57;3.40;;;3.10;;
29362;SDS011;16349;53.672;10.014;2023-07-24T12:53:25;3.78;;;3.30;;
29362;SDS011;16349;53.672;10.014;2023-07-24T12:55:52;3.72;;;3.42;;
29362;SDS011;16349;53.672;10.014;2023-07-24T12:58:19;3.38;;;3.17;;
29362;SDS011;16349;53.672;10.014;2023-07-24T13:00:46;3.33;;;3.03;;
29362;SDS011;16349;53.672;10.014;2023-07-24T13:03:14;3.28;;;3.08;;
29362;SDS011;16349;53.672;10.014;2023-07-24T13:05:41;4.60;;;3.08;;
29362;SDS011;16349;53.672;10.014;2023-07-24T13:08:08;3.28;;;2.95;;
29362;SDS011;16349;53.672;10.014;2023-07-24T13:10:35;3.72;;;3.38;;
29362;SDS011;16349;53.672;10.014;2023-07-24T13:13:02;3.60;;;3.40;;
29362;SDS011;16349;53.672;10.014;2023-07-24T13:15:29;3.50;;;3.20;;
29362;SDS011;16349;53.672;10.014;2023-07-24T13:17:57;3.15;;;2.92;;
29362;SDS011;16349;53.672;10.014;2023-07-24T13:20:25;3.65;;;3.35;;
29362;SDS011;16349;53.672;10.014;2023-07-24T13:22:52;3.83;;;3.53;;
29362;SDS011;16349;53.672;10.014;2023-07-24T13:25:19;3.65;;;3.22;;
29362;SDS011;16349;53.672;10.014;2023-07-24T13:27:46;3.47;;;3.17;;
29362;SDS011;16349;53.672;10.014;2023-07-24T13:30:13;3.50;;;3.30;;
29362;SDS011;16349;53.672;10.014;2023-07-24T13:32:40;3.33;;;3.10;;
29362;SDS011;16349;53.672;10.014;2023-07-24T13:35:07;3.75;;;3.47;;
29362;SDS011;16349;53.672;10.014;2023-07-24T13:37:36;4.55;;;3.40;;
29362;SDS011;16349;53.672;10.014;2023-07-24T13:40:03;3.25;;;2.95;;
29362;SDS011;16349;53.672;10.014;2023-07-24T13:42:30;3.30;;;3.00;;
29362;SDS011;16349;53.672;10.014;2023-07-24T13:44:57;3.42;;;3.22;;
29362;SDS011;16349;53.672;10.014;2023-07-24T13:47:24;4.18;;;3.00;;
29362;SDS011;16349;53.672;10.014;2023-07-24T13:49:51;3.15;;;2.92;;
29362;SDS011;16349;53.672;10.014;2023-07-24T13:52:18;3.13;;;2.90;;
29362;SDS011;16349;53.672;10.014;2023-07-24T13:54:47;3.63;;;3.28;;
29362;SDS011;16349;53.672;10.014;2023-07-24T13:57:13;2.78;;;2.67;;
29362;SDS011;16349;53.672;10.014;2023-07-24T13:59:40;3.25;;;3.05;;
29362;SDS011;16349;53.672;10.014;2023-07-24T14:02:07;3.40;;;3.20;;
29362;SDS011;16349;53.672;10.014;2023-07-24T14:04:34;3.72;;;3.30;;
29362;SDS011;16349;53.672;10.014;2023-07-24T14:07:01;3.10;;;2.90;;
29362;SDS011;16349;53.672;10.014;2023-07-24T14:09:28;3.38;;;3.08;;
29362;SDS011;16349;53.672;10.014;2023-07-24T14:11:57;2.97;;;2.78;;
29362;SDS011;16349;53.672;10.014;2023-07-24T14:14:24;3.00;;;2.78;;
29362;SDS011;16349;53.672;10.014;2023-07-24T14:16:51;3.78;;;3.53;;
29362;SDS011;16349;53.672;10.014;2023-07-24T14:19:18;3.80;;;3.50;;
29362;SDS011;16349;53.672;10.014;2023-07-24T14:21:45;4.05;;;3.75;;
29362;SDS011;16349;53.672;10.014;2023-07-24T14:24:12;3.38;;;3.13;;
29362;SDS011;16349;53.672;10.014;2023-07-24T14:26:39;3.67;;;3.38;;
29362;SDS011;16349;53.672;10.014;2023-07-24T14:29:07;3.08;;;2.88;;
29362;SDS011;16349;53.672;10.014;2023-07-24T14:31:34;3.95;;;3.65;;
29362;SDS011;16349;53.672;10.014;2023-07-24T14:34:01;3.40;;;3.20;;
29362;SDS011;16349;53.672;10.014;2023-07-24T14:36:28;3.88;;;3.58;;